createdAt,value
2018-01-13T00:01:02.480Z,23.40
2018-01-13T00:03:30.426Z,21.50
2018-01-13T00:05:58.492Z,23.23
2018-01-13T00:08:26.429Z,25.93
2018-01-13T00:10:54.368Z,23.83
2018-01-13T00:13:22.441Z,22.33
2018-01-13T00:15:50.437Z,21.80
2018-01-13T00:18:18.382Z,23.90
2018-01-13T00:20:46.445Z,21.40
2018-01-13T00:23:14.384Z,25.43
2018-01-13T00:25:43.077Z,24.07
2018-01-13T00:28:11.141Z,25.00
2018-01-13T00:30:39.799Z,28.33
2018-01-13T00:33:07.739Z,23.60
2018-01-13T00:35:35.798Z,24.30
2018-01-13T00:38:03.913Z,26.37
2018-01-13T00:40:31.851Z,22.90
2018-01-13T00:42:59.912Z,24.70
2018-01-13T00:45:27.868Z,29.63
2018-01-13T00:47:55.797Z,26.70
2018-01-13T00:50:23.872Z,27.20
2018-01-13T00:52:51.802Z,24.17
2018-01-13T00:55:19.823Z,26.87
2018-01-13T00:57:48.734Z,25.30
2018-01-13T01:00:17.412Z,26.40
2018-01-13T01:02:46.088Z,27.37
2018-01-13T01:05:14.150Z,31.53
2018-01-13T01:07:42.093Z,27.73
2018-01-13T01:10:10.024Z,26.63
2018-01-13T01:12:38.844Z,29.10
2018-01-13T01:15:06.784Z,28.33
2018-01-13T01:17:35.501Z,29.30
2018-01-13T01:20:03.571Z,28.77
2018-01-13T01:22:31.514Z,30.07
2018-01-13T01:24:59.444Z,27.67
2018-01-13T01:27:27.508Z,28.80
2018-01-13T01:29:55.452Z,32.57
2018-01-13T01:32:23.418Z,31.53
2018-01-13T01:34:51.483Z,34.67
2018-01-13T01:37:19.432Z,29.73
2018-01-13T01:39:48.340Z,28.23
2018-01-13T01:42:16.429Z,36.87
2018-01-13T01:44:44.364Z,29.13
2018-01-13T01:47:13.214Z,32.73
2018-01-13T01:49:41.267Z,32.17
2018-01-13T01:52:09.208Z,32.37
2018-01-13T01:54:37.157Z,32.47
2018-01-13T01:57:06.021Z,30.90
2018-01-13T01:59:33.953Z,30.37
2018-01-13T02:02:01.872Z,39.37
2018-01-13T02:04:30.076Z,32.40
2018-01-13T02:06:58.825Z,34.23
2018-01-13T02:09:26.776Z,35.67
2018-01-13T02:11:54.869Z,31.53
2018-01-13T02:14:22.928Z,32.70
2018-01-13T02:16:50.888Z,32.63
2018-01-13T02:19:18.951Z,33.57
2018-01-13T02:21:46.898Z,32.00
2018-01-13T02:24:15.581Z,31.87
2018-01-13T02:26:44.449Z,31.13
2018-01-13T02:29:12.394Z,32.30
2018-01-13T02:31:40.328Z,29.80
2018-01-13T02:34:08.379Z,32.50
2018-01-13T02:36:37.150Z,33.00
2018-01-13T02:39:05.212Z,33.17
2018-01-13T02:41:33.424Z,35.20
2018-01-13T02:44:02.104Z,39.80
2018-01-13T02:46:30.859Z,33.43
2018-01-13T02:48:58.930Z,30.60
2018-01-13T02:51:26.865Z,28.80
2018-01-13T02:53:54.789Z,41.20
2018-01-13T02:56:22.953Z,32.60
2018-01-13T02:58:50.888Z,33.40
2018-01-13T03:01:18.831Z,31.97
2018-01-13T03:03:47.621Z,32.93
2018-01-13T03:06:16.362Z,31.23
2018-01-13T03:08:44.306Z,35.60
2018-01-13T03:11:12.385Z,30.47
2018-01-13T03:13:40.307Z,32.23
2018-01-13T03:16:09.003Z,35.13
2018-01-13T03:18:37.848Z,32.83
2018-01-13T03:21:06.272Z,32.73
2018-01-13T04:15:34.936Z,27.27
2018-01-13T04:18:03.628Z,24.97
2018-01-13T04:20:32.295Z,27.40
2018-01-13T04:23:00.363Z,25.90
2018-01-13T04:25:28.288Z,30.23
2018-01-13T04:27:56.220Z,33.23
2018-01-13T04:30:25.023Z,28.23
2018-01-13T04:32:53.714Z,28.33
2018-01-13T04:35:21.709Z,28.73
2018-01-13T04:37:49.761Z,25.47
2018-01-13T04:40:17.696Z,26.67
2018-01-13T04:42:45.647Z,26.13
2018-01-13T04:45:13.841Z,23.87
2018-01-13T04:47:41.805Z,26.50
2018-01-13T04:50:09.749Z,28.30
2018-01-13T04:52:37.837Z,30.13
2018-01-13T04:55:05.785Z,27.50
2018-01-13T04:57:33.726Z,26.03
2018-01-13T05:00:01.790Z,30.07
2018-01-13T05:02:30.472Z,31.90
2018-01-13T05:04:59.144Z,22.67
2018-01-13T05:07:27.214Z,24.50
2018-01-13T05:09:55.208Z,31.33
2018-01-13T05:12:23.876Z,28.50
2018-01-13T05:14:51.962Z,22.80
2018-01-13T05:17:20.800Z,23.60
2018-01-13T05:19:48.761Z,27.67
2018-01-13T05:22:16.849Z,27.50
2018-01-13T05:24:44.790Z,27.50
2018-01-13T05:27:12.736Z,31.23
2018-01-13T05:29:41.547Z,33.00
2018-01-13T05:32:09.481Z,24.80
2018-01-13T05:34:37.416Z,28.00
2018-01-13T05:37:05.517Z,24.93
2018-01-13T05:39:33.453Z,24.10
2018-01-13T05:42:01.408Z,31.27
2018-01-13T05:44:29.476Z,26.87
2018-01-13T05:46:57.493Z,29.20
2018-01-13T05:49:25.473Z,25.37
2018-01-13T05:51:53.555Z,27.10
2018-01-13T05:54:22.227Z,31.50
2018-01-13T05:56:50.295Z,38.20
2018-01-13T05:59:18.381Z,26.97
2018-01-13T06:01:46.477Z,34.47
2018-01-13T06:04:15.174Z,25.63
2018-01-13T06:06:43.309Z,27.43
2018-01-13T06:09:11.238Z,31.80
2018-01-13T06:11:39.184Z,37.27
2018-01-13T06:14:07.236Z,40.10
2018-01-13T06:16:35.988Z,29.10
2018-01-13T06:19:04.064Z,28.77
2018-01-13T06:21:32.129Z,27.67
2018-01-13T06:24:00.068Z,37.57
2018-01-13T06:26:28.089Z,24.63
2018-01-13T06:28:56.174Z,30.97
2018-01-13T06:31:24.122Z,21.80
2018-01-13T06:33:52.066Z,25.40
2018-01-13T06:36:20.125Z,26.07
2018-01-13T06:38:48.089Z,31.10
2018-01-13T06:41:16.033Z,27.23
2018-01-13T06:43:44.839Z,22.70
2018-01-13T06:46:14.140Z,22.30
2018-01-13T06:48:42.813Z,20.00
2018-01-13T06:51:10.888Z,22.50
2018-01-13T06:53:39.567Z,21.13
2018-01-13T06:56:07.501Z,25.63
2018-01-13T06:58:35.566Z,17.80
2018-01-13T07:01:03.504Z,25.77
2018-01-13T07:03:32.181Z,21.00
2018-01-13T07:06:01.077Z,27.83
2018-01-13T07:08:29.760Z,19.70
2018-01-13T07:10:58.427Z,16.90
2018-01-13T07:13:26.480Z,32.00
2018-01-13T07:15:54.432Z,22.80
2018-01-13T07:18:22.382Z,25.93
2018-01-13T07:20:50.585Z,16.57
2018-01-13T07:23:18.531Z,20.20
2018-01-13T07:25:46.470Z,19.13
2018-01-13T07:28:15.272Z,11.17
2018-01-13T07:30:43.950Z,12.57
2018-01-13T07:33:12.612Z,9.73
2018-01-13T07:35:40.795Z,13.70
2018-01-13T07:38:08.737Z,12.40
2018-01-13T07:40:36.686Z,13.23
2018-01-13T07:43:04.741Z,10.73
2018-01-13T07:45:33.434Z,12.10
2018-01-13T07:48:01.361Z,10.83
2018-01-13T07:50:29.431Z,9.97
2018-01-13T07:52:57.376Z,8.23
2018-01-13T07:55:25.348Z,11.03
2018-01-13T07:57:53.417Z,10.90
2018-01-13T08:00:21.356Z,9.70
2018-01-13T08:02:49.284Z,9.73
2018-01-13T08:05:17.332Z,8.63
2018-01-13T08:07:45.256Z,8.87
2018-01-13T08:10:13.929Z,9.97
2018-01-13T08:12:41.984Z,11.30
2018-01-13T08:15:09.910Z,9.30
2018-01-13T08:17:37.893Z,9.37
2018-01-13T08:20:05.938Z,9.37
2018-01-13T08:22:34.741Z,10.03
2018-01-13T08:25:02.664Z,12.47
2018-01-13T08:27:30.700Z,9.40
2018-01-13T08:29:58.610Z,8.43
2018-01-13T08:32:26.520Z,9.47
2018-01-13T08:34:54.536Z,11.90
2018-01-13T08:37:22.617Z,10.90
2018-01-13T08:39:50.512Z,8.83
2018-01-13T08:42:19.289Z,9.00
2018-01-13T08:44:47.953Z,8.77
2018-01-13T08:47:15.856Z,9.20
2018-01-13T09:02:43.151Z,17.03
2018-01-13T09:05:11.168Z,9.17
2018-01-13T09:07:39.804Z,9.40
2018-01-13T09:10:07.861Z,8.13
2018-01-13T09:12:35.773Z,7.70
2018-01-13T09:15:03.717Z,10.03
2018-01-13T09:17:31.749Z,8.00
2018-01-13T09:20:00.404Z,8.33
2018-01-13T09:22:28.309Z,8.50
2018-01-13T09:24:57.226Z,9.93
2018-01-13T09:27:25.145Z,7.70
2018-01-13T09:29:53.193Z,8.00
2018-01-13T09:32:21.224Z,8.67
2018-01-13T09:34:49.138Z,9.10
2018-01-13T09:37:17.056Z,8.53
2018-01-13T09:39:45.825Z,8.20
2018-01-13T09:42:14.506Z,10.80
2018-01-13T09:44:42.405Z,11.17
2018-01-13T09:47:10.528Z,9.17
2018-01-13T09:49:38.448Z,9.00
2018-01-13T09:52:06.343Z,9.70
2018-01-13T09:54:34.352Z,9.47
2018-01-13T09:57:02.349Z,9.30
2018-01-13T09:59:30.988Z,7.70
2018-01-13T10:01:59.012Z,9.10
2018-01-13T10:04:27.656Z,9.43
2018-01-13T10:06:55.686Z,7.70
2018-01-13T10:09:23.721Z,10.70
2018-01-13T10:11:51.635Z,9.40
2018-01-13T10:14:19.561Z,10.37
2018-01-13T10:16:48.413Z,8.53
2018-01-13T10:19:16.344Z,9.80
2018-01-13T10:21:45.009Z,9.53
2018-01-13T10:24:13.803Z,8.17
2018-01-13T10:26:42.622Z,13.30
2018-01-13T10:29:10.538Z,9.50
2018-01-13T10:31:38.589Z,9.77
2018-01-13T10:34:07.472Z,16.57
2018-01-13T10:36:35.445Z,10.40
2018-01-13T10:39:03.676Z,10.60
2018-01-13T10:41:32.317Z,11.03
2018-01-13T10:44:00.264Z,9.27
2018-01-13T10:46:28.414Z,11.00
2018-01-13T10:48:57.063Z,10.10
2018-01-13T10:51:24.969Z,12.40
2018-01-13T10:53:53.754Z,12.60
2018-01-13T10:56:22.482Z,10.30
2018-01-13T10:58:50.430Z,11.40
2018-01-13T11:01:18.456Z,13.23
2018-01-13T11:03:46.355Z,12.30
2018-01-13T11:06:15.078Z,11.47
2018-01-13T11:08:43.100Z,11.30
2018-01-13T11:11:11.756Z,12.80
2018-01-13T11:13:39.657Z,11.37
2018-01-13T11:16:07.855Z,12.73
2018-01-13T11:18:36.573Z,11.73
2018-01-13T11:21:04.472Z,12.00
2018-01-13T11:23:32.497Z,10.97
2018-01-13T11:26:00.461Z,13.30
2018-01-13T11:28:29.186Z,12.73
2018-01-13T11:30:57.825Z,13.07
2018-01-13T11:33:25.801Z,13.03
2018-01-13T11:35:54.730Z,13.60
2018-01-13T11:38:23.330Z,12.40
2018-01-13T11:40:52.425Z,12.23
2018-01-13T11:43:20.946Z,18.67
2018-01-13T11:45:49.695Z,13.77
2018-01-13T11:48:17.963Z,12.60
2018-01-13T11:50:46.793Z,15.23
2018-01-13T11:53:14.930Z,13.93
2018-01-13T11:55:42.834Z,15.57
2018-01-13T11:58:11.501Z,14.87
2018-01-13T12:00:39.558Z,13.10
2018-01-13T12:03:07.456Z,15.27
2018-01-13T12:05:35.483Z,15.27
2018-01-13T12:08:03.565Z,14.20
2018-01-13T12:10:31.490Z,15.37
2018-01-13T12:13:00.128Z,15.00
2018-01-13T12:15:28.331Z,15.63
2018-01-13T12:17:56.255Z,13.90
2018-01-13T12:20:24.301Z,17.33
2018-01-13T12:22:53.132Z,17.60
2018-01-13T12:25:21.169Z,15.90
2018-01-13T12:27:49.601Z,13.97
2018-01-13T12:30:17.643Z,14.13
2018-01-13T12:32:45.612Z,15.03
2018-01-13T12:35:13.533Z,13.20
2018-01-13T12:37:42.141Z,15.17
2018-01-13T12:40:10.222Z,12.23
2018-01-13T12:42:38.478Z,15.27
2018-01-13T12:45:07.274Z,14.57
2018-01-13T12:47:35.920Z,14.57
2018-01-13T12:50:03.902Z,13.53
2018-01-13T12:52:31.989Z,15.33
2018-01-13T12:54:59.932Z,15.20
2018-01-13T12:57:27.865Z,13.90
2018-01-13T12:59:56.682Z,15.73
2018-01-13T13:02:24.581Z,17.07
2018-01-13T13:04:52.514Z,15.73
2018-01-13T13:07:20.569Z,15.10
2018-01-13T13:09:48.493Z,14.77
2018-01-13T13:12:16.521Z,14.93
2018-01-13T13:14:44.556Z,15.43
2018-01-13T13:17:13.206Z,15.83
2018-01-13T13:19:41.108Z,16.77
2018-01-13T13:22:10.132Z,20.90
2018-01-13T13:24:38.033Z,15.27
2018-01-13T13:27:05.976Z,14.63
2018-01-13T13:29:33.996Z,18.03
2018-01-13T13:32:01.966Z,17.10
2018-01-13T13:34:29.941Z,19.83
2018-01-13T13:36:58.777Z,16.37
2018-01-13T13:39:27.229Z,17.23
2018-01-13T13:41:55.935Z,20.27
2018-01-13T13:44:24.147Z,20.90
2018-01-13T13:46:52.232Z,20.00
2018-01-13T13:49:20.182Z,18.90
2018-01-13T13:51:48.261Z,19.67
2018-01-13T13:54:16.189Z,19.03
2018-01-13T13:56:44.931Z,22.17
2018-01-13T13:59:13.093Z,20.47
2018-01-13T14:01:41.086Z,19.00
2018-01-13T14:04:08.988Z,19.87
2018-01-13T14:06:37.832Z,21.43
2018-01-13T14:09:05.772Z,21.87
2018-01-13T14:11:33.701Z,22.53
2018-01-13T14:14:01.752Z,20.53
2018-01-13T14:16:29.719Z,22.23
2018-01-13T14:18:57.632Z,22.63
2018-01-13T14:21:26.442Z,24.47
2018-01-13T14:23:54.525Z,24.20
2018-01-13T14:26:22.526Z,24.13
2018-01-13T14:28:50.601Z,24.30
2018-01-13T14:31:18.539Z,24.63
2018-01-13T14:33:46.481Z,24.53
2018-01-13T14:36:15.321Z,24.83
2018-01-13T14:38:43.287Z,24.63
2018-01-13T14:41:11.205Z,26.37
2018-01-13T14:43:39.998Z,28.27
2018-01-13T14:46:08.714Z,25.27
2018-01-13T14:48:36.613Z,24.77
2018-01-13T14:51:04.639Z,25.63
2018-01-13T14:53:32.550Z,29.30
2018-01-13T14:56:00.486Z,27.53
2018-01-13T14:58:28.544Z,27.40
2018-01-13T15:00:57.253Z,30.70
2018-01-13T15:03:25.181Z,35.63
2018-01-13T15:05:53.224Z,29.20
2018-01-13T15:08:21.145Z,27.97
2018-01-13T15:10:49.810Z,31.00
2018-01-13T15:13:17.880Z,29.87
2018-01-13T15:15:45.888Z,30.80
2018-01-13T15:18:13.821Z,31.80
2018-01-13T15:20:41.877Z,31.47
2018-01-13T15:23:09.788Z,30.67
2018-01-13T15:25:38.580Z,32.83
2018-01-13T15:28:06.614Z,32.00
2018-01-13T15:30:35.334Z,33.80
2018-01-13T15:33:04.030Z,34.10
2018-01-13T15:35:32.073Z,33.50
2018-01-13T15:38:00.069Z,35.10
2018-01-13T15:40:28.817Z,36.27
2018-01-13T15:42:56.912Z,34.97
2018-01-13T15:45:25.642Z,38.40
2018-01-13T15:47:53.560Z,37.80
2018-01-13T15:50:21.630Z,35.07
2018-01-13T15:52:49.579Z,34.20
2018-01-13T15:55:17.553Z,37.90
2018-01-13T15:57:45.640Z,37.87
2018-01-13T16:00:13.598Z,38.83
2018-01-13T16:02:41.550Z,36.80
2018-01-13T16:05:09.637Z,38.60
2018-01-13T16:07:37.559Z,42.67
2018-01-13T16:10:05.483Z,39.97
2018-01-13T16:12:33.536Z,38.30
2018-01-13T16:15:01.480Z,41.03
2018-01-13T16:17:29.465Z,41.30
2018-01-13T16:19:57.513Z,38.27
2018-01-13T16:22:25.443Z,40.33
2018-01-13T16:24:53.429Z,40.73
2018-01-13T16:27:21.705Z,39.23
2018-01-13T16:29:49.604Z,40.90
2018-01-13T16:32:17.541Z,42.37
2018-01-13T16:34:45.590Z,43.23
2018-01-13T16:37:13.558Z,42.80
2018-01-13T16:39:41.518Z,45.37
2018-01-13T16:42:09.556Z,45.60
2018-01-13T16:44:38.538Z,41.07
2018-01-13T16:47:07.669Z,43.63
2018-01-13T16:49:36.468Z,45.37
2018-01-13T16:52:05.116Z,46.23
2018-01-13T16:54:33.796Z,44.00
2018-01-13T16:57:02.800Z,44.30
2018-01-13T16:59:31.192Z,43.00
2018-01-13T17:02:00.504Z,47.33
2018-01-13T17:04:29.288Z,47.97
2018-01-13T17:06:57.936Z,51.50
2018-01-13T17:09:26.616Z,52.03
2018-01-13T17:11:55.507Z,54.60
2018-01-13T17:14:23.482Z,52.70
2018-01-13T17:16:51.586Z,50.70
2018-01-13T17:19:19.682Z,49.80
2018-01-13T17:21:47.657Z,50.20
2018-01-13T17:24:15.650Z,48.10
2018-01-13T17:26:43.770Z,49.90
2018-01-13T17:29:12.662Z,49.67
2018-01-13T17:31:41.358Z,52.87
2018-01-13T17:34:09.479Z,53.63
2018-01-13T17:36:37.472Z,55.17
2018-01-13T17:39:05.566Z,55.70
2018-01-13T17:41:34.314Z,57.67
2018-01-13T17:44:02.331Z,60.23
2018-01-13T17:46:31.098Z,58.27
2018-01-13T17:48:59.231Z,53.03
2018-01-13T17:51:27.201Z,52.67
2018-01-13T17:53:55.188Z,50.00
2018-01-13T17:56:23.378Z,48.67
2018-01-13T17:58:51.352Z,46.50
2018-01-13T18:01:19.330Z,50.87
2018-01-13T18:03:48.156Z,46.47
2018-01-13T18:06:16.210Z,46.93
2018-01-13T18:08:45.353Z,46.40
2018-01-13T18:11:13.500Z,48.50
2018-01-13T18:13:41.475Z,46.43
2018-01-13T18:16:09.501Z,46.03
2018-01-13T18:18:37.600Z,47.30
2018-01-13T18:21:06.370Z,46.07
2018-01-13T18:23:35.149Z,49.17
2018-01-13T18:26:03.402Z,48.17
2018-01-13T18:28:31.383Z,45.37
2018-01-13T18:30:59.543Z,48.77
2018-01-13T18:33:27.742Z,47.80
2018-01-13T18:35:55.829Z,46.23
2018-01-13T18:38:23.862Z,44.40
2018-01-13T18:40:52.013Z,45.33
2018-01-13T18:43:19.978Z,49.07
2018-01-13T18:45:48.743Z,49.53
2018-01-13T18:48:17.629Z,44.67
2018-01-13T18:50:46.336Z,47.13
2018-01-13T18:53:15.008Z,51.60
2018-01-13T18:55:43.904Z,51.43
2018-01-13T18:58:12.612Z,51.80
2018-01-13T19:00:40.556Z,52.10
2018-01-13T19:03:08.653Z,55.33
2018-01-13T19:05:36.626Z,52.93
2018-01-13T19:08:04.607Z,53.70
2018-01-13T19:10:32.712Z,51.43
2018-01-13T19:13:00.664Z,56.77
2018-01-13T19:15:28.705Z,54.07
2018-01-13T19:17:57.514Z,56.10
2018-01-13T19:20:25.505Z,56.27
2018-01-13T19:22:53.452Z,60.73
2018-01-13T19:25:21.570Z,58.43
2018-01-13T19:27:49.533Z,61.00
2018-01-13T19:30:17.534Z,60.83
2018-01-13T19:32:46.492Z,60.30
2018-01-13T19:35:14.572Z,59.93
2018-01-13T19:37:42.546Z,59.23
2018-01-13T19:40:10.596Z,56.67
2018-01-13T19:42:38.533Z,55.33
2018-01-13T19:45:07.229Z,57.90
2018-01-13T19:47:35.314Z,60.90
2018-01-13T19:50:03.237Z,61.97
2018-01-13T19:52:31.174Z,62.50
2018-01-13T19:54:59.249Z,61.47
2018-01-13T19:57:27.185Z,60.93
2018-01-13T19:59:55.089Z,63.73
2018-01-13T20:02:23.148Z,60.60
2018-01-13T20:04:51.053Z,60.43
2018-01-13T20:07:18.969Z,61.00
2018-01-13T20:09:47.033Z,65.30
2018-01-13T20:12:15.687Z,61.63
2018-01-13T20:14:43.584Z,64.20
2018-01-13T20:17:12.373Z,63.57
2018-01-13T20:19:41.025Z,66.33
2018-01-13T20:22:08.965Z,63.33
2018-01-13T20:24:37.018Z,66.63
2018-01-13T20:27:05.017Z,66.67
2018-01-13T20:29:32.945Z,71.73
2018-01-13T20:32:01.730Z,68.27
2018-01-13T20:34:30.547Z,70.17
2018-01-13T20:36:58.529Z,67.30
2018-01-13T20:39:26.569Z,72.23
2018-01-13T20:41:55.197Z,81.37
2018-01-13T20:44:23.127Z,71.83
2018-01-13T20:46:51.233Z,70.17
2018-01-13T20:49:19.170Z,71.53
2018-01-13T20:51:47.164Z,73.23
2018-01-13T20:54:15.222Z,71.00
2018-01-13T20:56:43.214Z,71.33
2018-01-13T20:59:11.128Z,69.87
2018-01-13T21:01:39.193Z,68.83
2018-01-13T21:04:07.130Z,77.30
2018-01-13T21:06:35.101Z,76.23
2018-01-13T21:09:03.277Z,71.97
2018-01-13T21:11:31.212Z,74.23
2018-01-13T21:13:59.132Z,74.60
2018-01-13T21:16:27.318Z,74.97
2018-01-13T21:18:55.245Z,76.43
2018-01-13T21:21:23.161Z,74.83
2018-01-13T21:23:51.210Z,76.97
2018-01-13T21:26:19.161Z,74.20
2018-01-13T21:28:47.070Z,78.90
2018-01-13T21:31:15.118Z,77.40
2018-01-13T21:33:43.046Z,77.47
2018-01-13T21:36:11.857Z,74.73
2018-01-13T21:38:39.907Z,76.83
2018-01-13T21:41:08.556Z,76.90
2018-01-13T21:43:36.471Z,78.70
2018-01-13T21:46:04.546Z,77.47
2018-01-13T21:48:32.452Z,77.53
2018-01-13T21:51:00.385Z,78.87
2018-01-13T21:53:28.452Z,77.77
2018-01-13T21:55:56.373Z,80.60
2018-01-13T21:58:24.300Z,81.93
2018-01-13T22:00:52.370Z,78.93
2018-01-13T22:03:20.290Z,82.43
2018-01-13T22:05:48.226Z,81.03
2018-01-13T22:08:16.338Z,82.07
2018-01-13T22:10:44.244Z,77.40
2018-01-13T22:13:12.161Z,79.97
2018-01-13T22:15:40.206Z,81.23
2018-01-13T22:18:08.149Z,82.60
2018-01-13T22:20:36.848Z,82.00
2018-01-13T22:23:04.890Z,87.37
2018-01-13T22:25:32.818Z,87.23
2018-01-13T22:28:00.726Z,86.23
2018-01-13T22:30:28.794Z,83.47
2018-01-13T22:32:56.700Z,86.30
2018-01-13T22:35:24.637Z,84.70
2018-01-13T22:37:52.826Z,87.90
2018-01-13T22:40:21.504Z,85.63
2018-01-13T22:42:49.446Z,86.47
2018-01-13T22:45:17.476Z,87.37
2018-01-13T22:47:45.403Z,88.57
2018-01-13T22:50:13.360Z,90.87
2018-01-13T22:52:41.441Z,91.90
2018-01-13T22:55:09.382Z,88.77
2018-01-13T22:57:37.283Z,89.67
2018-01-13T23:00:05.577Z,90.10
2018-01-13T23:02:34.248Z,91.37
2018-01-13T23:05:02.156Z,88.27
2018-01-13T23:07:30.201Z,90.30
2018-01-13T23:09:58.260Z,88.13
2018-01-13T23:12:26.196Z,89.80
2018-01-13T23:14:54.252Z,89.23
2018-01-13T23:17:23.494Z,93.47
2018-01-13T23:19:51.413Z,88.10
2018-01-13T23:22:19.517Z,90.67
2018-01-13T23:24:47.416Z,92.13
2018-01-13T23:27:22.229Z,90.47
2018-01-13T23:29:50.181Z,95.93
2018-01-13T23:32:18.125Z,92.17
2018-01-13T23:34:46.146Z,90.57
2018-01-13T23:37:14.072Z,88.23
2018-01-13T23:39:42.136Z,93.30
2018-01-13T23:42:10.945Z,92.13
2018-01-13T23:44:38.860Z,91.27
2018-01-13T23:47:06.918Z,91.80
2018-01-13T23:49:34.948Z,94.40
2018-01-13T23:52:02.885Z,89.30
2018-01-13T23:54:30.814Z,92.27
2018-01-13T23:56:58.921Z,93.00
2018-01-13T23:59:26.844Z,95.17
